Time;durP1;ratioP1;P1;durP2;ratioP2;P2;SDS_P1;SDS_P2;PMS_P1;PMS_P2;Temp;Humidity;BMP_temperature;BMP_pressure;BME280_temperature;BME280_humidity;BME280_pressure;Samples;Min_cycle;Max_cycle;Signal;HPM_P1;HPM_P2
2023/03/11 00:00:49;;;;;;;0.60;0.50;;;5.50;1.00;;;;;;5040767;28;20449;-53
2023/03/11 00:03:17;;;;;;;0.60;0.60;;;5.50;1.00;;;;;;5046979;28;20241;-53
2023/03/11 00:05:43;;;;;;;1.37;0.90;;;5.60;1.00;;;;;;5047133;28;20757;-55
2023/03/11 00:08:13;;;;;;;0.77;0.77;;;5.50;1.00;;;;;;5050298;28;20457;-56
2023/03/11 00:10:42;;;;;;;0.70;0.70;;;5.10;1.00;;;;;;5044328;28;20467;-54
2023/03/11 00:13:10;;;;;;;0.60;0.60;;;4.90;1.00;;;;;;5046269;28;20522;-55
2023/03/11 00:15:37;;;;;;;0.90;0.80;;;5.00;1.00;;;;;;5058578;28;20481;-53
2023/03/11 00:18:04;;;;;;;1.37;0.70;;;4.80;1.00;;;;;;5056506;28;20502;-55
2023/03/11 00:20:36;;;;;;;1.10;0.97;;;4.80;1.00;;;;;;5043907;28;20450;-53
2023/03/11 00:23:04;;;;;;;0.87;0.83;;;4.70;1.00;;;;;;5043332;28;20607;-55
2023/03/11 00:25:31;;;;;;;0.90;0.90;;;4.80;1.00;;;;;;5038148;28;20443;-55
2023/03/11 00:27:57;;;;;;;0.90;0.90;;;4.90;1.00;;;;;;5041902;28;20544;-55
2023/03/11 00:30:24;;;;;;;1.30;0.83;;;4.80;1.00;;;;;;5045825;28;20482;-57
2023/03/11 00:32:52;;;;;;;1.20;1.10;;;4.50;1.00;;;;;;5043953;28;20955;-56
2023/03/11 00:35:23;;;;;;;1.23;1.13;;;4.30;1.00;;;;;;5054647;28;20449;-58
2023/03/11 00:37:55;;;;;;;0.83;0.83;;;4.20;1.00;;;;;;5055621;28;20449;-54
2023/03/11 00:40:22;;;;;;;1.37;1.27;;;4.10;1.00;;;;;;5043751;28;20753;-53
2023/03/11 00:42:48;;;;;;;1.20;1.10;;;4.00;1.00;;;;;;5041904;28;20832;-55
2023/03/11 00:45:14;;;;;;;1.13;0.93;;;4.10;1.00;;;;;;5044904;28;20461;-56
2023/03/11 00:47:40;;;;;;;1.30;1.20;;;4.20;1.00;;;;;;5057406;28;20224;-52
2023/03/11 00:50:08;;;;;;;1.00;0.90;;;4.10;1.00;;;;;;5042607;28;21726;-52
2023/03/11 00:52:34;;;;;;;1.43;1.33;;;4.00;1.00;;;;;;5039744;28;20658;-55
2023/03/11 00:54:59;;;;;;;1.40;1.30;;;3.90;1.00;;;;;;5041785;28;20482;-57
2023/03/11 00:57:27;;;;;;;1.30;1.20;;;3.90;1.00;;;;;;5037806;28;20184;-54
2023/03/11 00:59:53;;;;;;;1.40;1.30;;;3.80;1.00;;;;;;5036340;28;20326;-54
2023/03/11 01:02:19;;;;;;;1.57;1.47;;;3.80;1.00;;;;;;5037999;28;20488;-55
2023/03/11 01:04:45;;;;;;;1.30;1.10;;;3.80;1.00;;;;;;5038332;28;20601;-56
2023/03/11 01:07:10;;;;;;;0.97;0.97;;;3.80;1.00;;;;;;5045860;28;20247;-55
2023/03/11 01:09:36;;;;;;;1.67;1.17;;;3.70;1.00;;;;;;5037572;28;20218;-54
2023/03/11 01:12:01;;;;;;;1.00;1.00;;;3.80;1.00;;;;;;5038622;28;20721;-53
2023/03/11 01:14:27;;;;;;;0.90;0.90;;;3.60;1.00;;;;;;5039815;28;20222;-53
2023/03/11 01:16:54;;;;;;;1.07;0.80;;;3.60;1.00;;;;;;5039084;28;20213;-54
2023/03/11 01:19:19;;;;;;;0.90;0.90;;;3.60;1.00;;;;;;5038086;28;20450;-54
2023/03/11 01:21:45;;;;;;;1.10;1.00;;;3.80;1.00;;;;;;5044163;28;20466;-57
2023/03/11 01:24:11;;;;;;;0.80;0.80;;;3.80;1.00;;;;;;5047970;28;20197;-55
2023/03/11 01:26:36;;;;;;;0.73;0.73;;;3.70;1.00;;;;;;5042123;28;20642;-55
2023/03/11 01:29:02;;;;;;;0.90;0.90;;;3.70;1.00;;;;;;5053051;28;20211;-52
2023/03/11 01:31:28;;;;;;;0.83;0.83;;;3.70;1.00;;;;;;5041608;28;20187;-52
2023/03/11 01:33:54;;;;;;;0.83;0.83;;;3.60;1.00;;;;;;5050884;28;20521;-54
2023/03/11 01:36:19;;;;;;;1.10;1.10;;;3.60;1.00;;;;;;5045802;28;20187;-56
2023/03/11 01:38:45;;;;;;;0.80;0.80;;;3.60;1.00;;;;;;5050184;28;20187;-56
2023/03/11 01:41:11;;;;;;;1.00;0.93;;;3.60;1.00;;;;;;5047557;28;20189;-55
2023/03/11 01:43:43;;;;;;;0.70;0.70;;;3.60;1.00;;;;;;5050326;28;20561;-54
2023/03/11 01:46:14;;;;;;;1.00;1.00;;;3.60;1.00;;;;;;5043380;28;20442;-54
2023/03/11 01:48:43;;;;;;;1.50;1.03;;;3.60;1.00;;;;;;5044661;28;20437;-53
2023/03/11 01:51:09;;;;;;;1.57;1.47;;;3.60;1.00;;;;;;5050474;28;20446;-55
2023/03/11 01:53:35;;;;;;;0.93;0.93;;;3.60;1.00;;;;;;5044048;28;20488;-55
2023/03/11 01:56:04;;;;;;;1.43;1.27;;;3.70;1.00;;;;;;5047333;28;20439;-56
2023/03/11 01:58:34;;;;;;;1.47;1.20;;;3.60;1.00;;;;;;5055245;28;20443;-53
2023/03/11 02:01:01;;;;;;;4.10;1.67;;;3.60;1.00;;;;;;5045511;28;20449;-55
2023/03/11 02:03:31;;;;;;;1.27;1.17;;;3.60;1.00;;;;;;5045973;28;20843;-55
2023/03/11 02:05:59;;;;;;;2.00;1.00;;;3.60;1.00;;;;;;5049839;28;20499;-54
2023/03/11 02:08:25;;;;;;;1.43;1.33;;;3.60;1.00;;;;;;5050452;28;20907;-58
2023/03/11 02:10:52;;;;;;;1.50;1.40;;;3.60;1.00;;;;;;5054113;28;20580;-53
2023/03/11 02:13:18;;;;;;;1.40;1.30;;;3.60;1.00;;;;;;5049103;28;20226;-55
2023/03/11 02:15:44;;;;;;;2.10;1.70;;;3.60;1.00;;;;;;5042954;28;20490;-55
2023/03/11 02:18:13;;;;;;;1.43;1.33;;;3.50;1.00;;;;;;5045542;28;20462;-53
2023/03/11 02:20:51;;;;;;;2.27;1.83;;;3.40;1.00;;;;;;5044127;28;20844;-55
2023/03/11 02:23:20;;;;;;;1.87;1.67;;;3.50;1.00;;;;;;5041384;28;20985;-55
2023/03/11 02:26:10;;;;;;;1.87;1.77;;;3.50;1.00;;;;;;5041846;28;20443;-53
2023/03/11 02:28:37;;;;;;;1.67;1.53;;;3.50;1.00;;;;;;5048264;28;20455;-55
2023/03/11 02:31:03;;;;;;;1.67;1.57;;;3.50;1.00;;;;;;5051045;28;20472;-56
2023/03/11 02:33:31;;;;;;;1.80;1.70;;;3.40;1.00;;;;;;5049070;28;20449;-53
2023/03/11 02:35:57;;;;;;;1.37;1.27;;;3.20;1.00;;;;;;5047550;28;20942;-54
2023/03/11 02:38:23;;;;;;;1.77;1.67;;;3.20;1.00;;;;;;5052874;28;20478;-55
2023/03/11 02:40:57;;;;;;;1.83;1.70;;;3.30;1.00;;;;;;5047279;28;20203;-55
2023/03/11 02:43:40;;;;;;;2.30;2.10;;;4.00;1.00;;;;;;5042843;28;20201;-54
2023/03/11 02:46:09;;;;;;;1.50;1.40;;;3.30;1.00;;;;;;5038864;28;20924;-54
2023/03/11 02:48:36;;;;;;;2.40;2.20;;;3.20;1.00;;;;;;5043952;28;20497;-56
2023/03/11 02:51:02;;;;;;;1.60;1.50;;;3.30;1.00;;;;;;5040044;28;20470;-53
2023/03/11 02:53:32;;;;;;;2.10;2.00;;;3.30;1.00;;;;;;5040978;28;20522;-54
2023/03/11 02:55:58;;;;;;;1.83;1.70;;;3.30;1.00;;;;;;5041990;28;20525;-55
2023/03/11 02:58:23;;;;;;;1.73;1.63;;;3.40;1.00;;;;;;5037829;28;20537;-56
2023/03/11 03:00:49;;;;;;;2.17;2.00;;;3.40;1.00;;;;;;5040370;28;20708;-56
2023/03/11 03:03:14;;;;;;;1.97;1.87;;;3.30;1.00;;;;;;5039020;28;20270;-53
2023/03/11 03:05:40;;;;;;;2.30;1.87;;;3.30;1.00;;;;;;5042223;28;20200;-55
2023/03/11 03:08:06;;;;;;;1.87;1.77;;;3.20;1.00;;;;;;5041064;28;20208;-54
2023/03/11 03:10:31;;;;;;;1.40;1.30;;;3.10;1.00;;;;;;5038757;28;20231;-56
2023/03/11 03:12:57;;;;;;;1.90;1.80;;;3.00;1.00;;;;;;5041462;28;20545;-53
2023/03/11 03:15:23;;;;;;;1.63;1.53;;;2.90;1.00;;;;;;5040579;28;20275;-53
2023/03/11 03:17:50;;;;;;;1.47;1.37;;;2.90;1.00;;;;;;5041764;28;20225;-54
2023/03/11 03:20:17;;;;;;;1.60;1.50;;;2.90;1.00;;;;;;5043347;28;20244;-54
2023/03/11 03:22:42;;;;;;;2.40;1.30;;;2.90;1.00;;;;;;5057789;28;20503;-54
2023/03/11 03:25:09;;;;;;;1.93;1.83;;;2.80;1.00;;;;;;5043086;28;20446;-55
2023/03/11 03:27:35;;;;;;;2.13;1.93;;;2.80;1.00;;;;;;5044751;28;20192;-52
2023/03/11 03:30:00;;;;;;;2.40;2.20;;;2.80;1.00;;;;;;5049056;28;20468;-53
2023/03/11 03:32:26;;;;;;;2.17;1.97;;;2.70;1.00;;;;;;5047923;28;20446;-55
2023/03/11 03:34:57;;;;;;;2.63;2.43;;;2.70;1.00;;;;;;5043980;28;20194;-54
2023/03/11 03:37:22;;;;;;;3.50;2.50;;;2.60;1.00;;;;;;5051861;28;20202;-52
2023/03/11 03:39:48;;;;;;;3.33;3.03;;;2.70;1.00;;;;;;5048778;28;20532;-53
2023/03/11 03:42:14;;;;;;;2.80;2.60;;;2.60;1.00;;;;;;5044627;28;20833;-54
2023/03/11 03:44:39;;;;;;;3.20;3.00;;;2.50;1.00;;;;;;5048915;28;20188;-53
2023/03/11 03:47:06;;;;;;;3.40;3.20;;;2.60;1.00;;;;;;5055965;28;20568;-52
2023/03/11 03:49:31;;;;;;;3.10;2.80;;;2.60;1.00;;;;;;5050828;28;20211;-55
2023/03/11 03:51:57;;;;;;;7.97;3.93;;;2.40;1.00;;;;;;5052534;28;20462;-56
2023/03/11 03:54:23;;;;;;;3.70;3.40;;;2.50;16.70;;;;;;5045784;28;20566;-56
2023/03/11 03:56:48;;;;;;;4.00;3.67;;;2.40;17.10;;;;;;5054619;28;20176;-53
2023/03/11 03:59:14;;;;;;;5.40;4.30;;;2.40;30.00;;;;;;5049409;28;20194;-54
2023/03/11 04:01:39;;;;;;;4.90;3.37;;;2.40;37.30;;;;;;5050761;28;20195;-56
2023/03/11 04:04:05;;;;;;;4.30;3.90;;;2.30;28.80;;;;;;5045703;28;20200;-56
2023/03/11 04:06:31;;;;;;;6.03;5.43;;;2.40;40.80;;;;;;5060246;28;20188;-55
2023/03/11 04:08:56;;;;;;;4.47;3.90;;;2.40;37.70;;;;;;5045573;28;20192;-53
2023/03/11 04:11:22;;;;;;;4.93;4.43;;;2.40;46.70;;;;;;5050824;28;20233;-57
2023/03/11 04:13:48;;;;;;;3.80;3.50;;;2.30;58.90;;;;;;5046535;28;20574;-56
2023/03/11 04:16:19;;;;;;;5.67;4.97;;;2.30;79.70;;;;;;5047065;28;20692;-54
2023/03/11 04:18:45;;;;;;;5.27;4.60;;;2.20;95.60;;;;;;5048300;28;20267;-53
2023/03/11 04:21:11;;;;;;;5.73;5.10;;;2.30;99.90;;;;;;5050137;28;20537;-54
2023/03/11 04:23:36;;;;;;;5.60;4.50;;;2.30;99.90;;;;;;5046478;28;20541;-55
2023/03/11 04:26:02;;;;;;;5.20;4.23;;;2.30;99.90;;;;;;5037845;28;21060;-52
2023/03/11 04:28:28;;;;;;;6.57;5.80;;;2.30;99.90;;;;;;5038614;28;20200;-54
2023/03/11 04:30:54;;;;;;;6.03;5.50;;;2.40;99.90;;;;;;5056891;28;20476;-53
2023/03/11 04:33:20;;;;;;;7.67;6.07;;;2.30;99.90;;;;;;5043701;28;20642;-53
2023/03/11 04:35:45;;;;;;;6.53;5.80;;;2.20;99.90;;;;;;5053248;28;20190;-54
2023/03/11 04:38:11;;;;;;;7.70;6.43;;;2.30;99.90;;;;;;5042483;28;20203;-55
2023/03/11 04:40:37;;;;;;;6.87;6.17;;;2.40;99.90;;;;;;5047373;28;20283;-54
2023/03/11 04:43:03;;;;;;;6.70;5.30;;;2.30;99.90;;;;;;5045090;28;20199;-54
2023/03/11 04:45:29;;;;;;;6.80;6.10;;;1.80;99.90;;;;;;5048582;28;20457;-55
2023/03/11 04:47:55;;;;;;;7.63;6.93;;;2.20;99.90;;;;;;5042315;28;20464;-56
2023/03/11 04:50:20;;;;;;;7.60;6.83;;;2.10;99.90;;;;;;5039858;28;20970;-56
2023/03/11 04:52:47;;;;;;;9.70;6.80;;;2.10;99.90;;;;;;5045472;28;20198;-54
2023/03/11 04:55:14;;;;;;;5.70;5.17;;;2.10;99.90;;;;;;5038575;28;20679;-54
2023/03/11 04:57:41;;;;;;;7.07;5.90;;;2.20;99.90;;;;;;5037721;28;21145;-55
2023/03/11 05:00:11;;;;;;;7.70;6.90;;;2.20;99.90;;;;;;5038560;28;21405;-54
2023/03/11 05:02:38;;;;;;;8.80;6.57;;;2.20;99.90;;;;;;5037201;28;20501;-54
2023/03/11 05:05:04;;;;;;;5.53;5.03;;;2.20;99.90;;;;;;5037551;28;20982;-56
2023/03/11 05:07:30;;;;;;;6.73;5.97;;;2.20;99.90;;;;;;5037400;28;21125;-56
2023/03/11 05:09:56;;;;;;;6.50;5.47;;;2.20;99.90;;;;;;5037082;28;20479;-57
2023/03/11 05:12:21;;;;;;;6.40;5.63;;;2.30;99.90;;;;;;5037450;28;20223;-55
2023/03/11 05:14:47;;;;;;;7.83;6.10;;;2.30;99.90;;;;;;5038164;28;20711;-56
2023/03/11 05:17:13;;;;;;;8.23;5.97;;;2.30;99.90;;;;;;5033961;28;20825;-57
2023/03/11 05:19:39;;;;;;;6.00;4.73;;;2.30;99.90;;;;;;5037293;28;20194;-56
2023/03/11 05:22:05;;;;;;;5.40;4.90;;;2.30;99.90;;;;;;5039116;28;20460;-56
2023/03/11 05:24:32;;;;;;;6.90;6.20;;;2.40;99.90;;;;;;5039164;28;20282;-57
2023/03/11 05:26:57;;;;;;;4.93;4.50;;;2.30;99.90;;;;;;5042514;28;20459;-56
2023/03/11 05:29:24;;;;;;;6.97;5.90;;;2.40;99.90;;;;;;5043181;28;20470;-58
2023/03/11 05:31:50;;;;;;;6.67;6.07;;;2.30;99.90;;;;;;5045890;28;20460;-56
2023/03/11 05:34:16;;;;;;;7.40;6.70;;;2.40;99.90;;;;;;5045504;28;20477;-55
2023/03/11 05:36:42;;;;;;;7.60;6.27;;;2.30;99.90;;;;;;5044734;28;20489;-56
2023/03/11 05:39:07;;;;;;;5.87;5.27;;;2.30;99.90;;;;;;5044822;28;20868;-56
2023/03/11 05:41:33;;;;;;;11.20;5.73;;;2.40;99.90;;;;;;5045514;28;20443;-56
2023/03/11 05:43:59;;;;;;;5.80;5.20;;;2.50;85.70;;;;;;5040841;28;20188;-54
2023/03/11 05:46:25;;;;;;;5.83;5.20;;;2.50;44.90;;;;;;5044663;28;20248;-56
2023/03/11 05:48:50;;;;;;;5.97;5.27;;;2.50;32.70;;;;;;5040573;28;20184;-55
2023/03/11 05:51:16;;;;;;;6.10;5.60;;;2.50;29.10;;;;;;5044454;28;20869;-55
2023/03/11 05:53:47;;;;;;;6.63;5.93;;;2.50;26.80;;;;;;5041982;28;20236;-54
2023/03/11 05:56:13;;;;;;;6.43;5.80;;;2.50;29.00;;;;;;5042772;28;20384;-55
2023/03/11 05:58:39;;;;;;;7.33;6.63;;;2.50;15.20;;;;;;5048087;28;20468;-55
2023/03/11 06:01:13;;;;;;;5.00;4.13;;;2.50;1.00;;;;;;5037287;28;20443;-56
2023/03/11 06:03:39;;;;;;;6.33;5.73;;;2.50;1.00;;;;;;5043736;28;20191;-55
2023/03/11 06:06:07;;;;;;;6.37;5.80;;;2.50;1.00;;;;;;5050068;28;20495;-54
2023/03/11 06:08:33;;;;;;;5.17;4.70;;;2.50;1.00;;;;;;5044341;28;21014;-56
2023/03/11 06:11:06;;;;;;;7.83;6.30;;;2.50;1.00;;;;;;5042531;28;20508;-53
2023/03/11 06:13:32;;;;;;;5.90;5.40;;;2.40;1.00;;;;;;5050988;28;20445;-55
2023/03/11 06:15:58;;;;;;;7.47;6.67;;;2.70;1.00;;;;;;5048418;28;20784;-55
2023/03/11 06:18:25;;;;;;;8.57;6.67;;;2.60;1.00;;;;;;5041972;28;20453;-53
2023/03/11 06:20:52;;;;;;;4.87;4.23;;;2.60;1.00;;;;;;5044637;28;20478;-54
2023/03/11 06:23:17;;;;;;;7.27;6.53;;;2.60;1.00;;;;;;5038731;28;20455;-54
2023/03/11 06:25:43;;;;;;;7.93;6.40;;;2.70;1.00;;;;;;5050480;28;20549;-54
2023/03/11 06:28:09;;;;;;;6.93;6.27;;;2.60;1.00;;;;;;5045275;28;20218;-53
2023/03/11 06:30:35;;;;;;;7.10;6.40;;;2.70;1.00;;;;;;5045257;28;20213;-54
2023/03/11 06:33:01;;;;;;;7.03;6.23;;;2.60;1.00;;;;;;5044349;28;20199;-54
2023/03/11 06:35:26;;;;;;;9.33;7.53;;;2.70;1.00;;;;;;5046776;28;20522;-53
2023/03/11 06:37:52;;;;;;;6.03;4.93;;;2.70;1.00;;;;;;5048348;28;20199;-55
2023/03/11 06:40:18;;;;;;;7.97;6.67;;;2.70;1.00;;;;;;5045847;28;20230;-53
2023/03/11 06:42:46;;;;;;;7.90;7.10;;;2.70;1.00;;;;;;5053521;28;20214;-54
2023/03/11 06:45:12;;;;;;;7.27;6.53;;;2.70;1.00;;;;;;5045606;28;20502;-52
2023/03/11 06:47:37;;;;;;;8.77;7.50;;;2.80;1.00;;;;;;5055102;28;20938;-54
2023/03/11 06:50:06;;;;;;;10.67;8.30;;;2.80;1.00;;;;;;5049153;28;20218;-58
2023/03/11 06:52:31;;;;;;;8.97;8.00;;;2.80;1.00;;;;;;5047058;28;20183;-57
2023/03/11 06:54:57;;;;;;;9.20;7.97;;;2.90;1.00;;;;;;5041231;28;20449;-54
2023/03/11 06:57:23;;;;;;;8.80;7.90;;;3.00;1.00;;;;;;5046051;28;20219;-55
2023/03/11 06:59:48;;;;;;;7.50;6.77;;;2.80;1.00;;;;;;5048915;28;20192;-55
2023/03/11 07:02:15;;;;;;;8.10;7.03;;;2.80;1.00;;;;;;5051221;28;20262;-54
2023/03/11 07:04:41;;;;;;;7.73;7.03;;;2.70;1.00;;;;;;5054994;28;20449;-53
2023/03/11 07:07:07;;;;;;;8.87;7.67;;;2.70;1.00;;;;;;5047438;28;20198;-54
2023/03/11 07:09:32;;;;;;;9.63;8.43;;;2.80;1.00;;;;;;5048361;28;20653;-53
2023/03/11 07:11:58;;;;;;;10.43;8.70;;;2.90;1.00;;;;;;5051467;28;20188;-55
2023/03/11 07:14:23;;;;;;;7.40;6.70;;;2.90;1.00;;;;;;5053125;28;20191;-55
2023/03/11 07:16:49;;;;;;;9.57;8.30;;;2.90;1.00;;;;;;5049654;28;20638;-56
2023/03/11 07:19:15;;;;;;;12.13;8.37;;;2.90;1.00;;;;;;5055984;28;20186;-54
2023/03/11 07:21:41;;;;;;;11.20;7.93;;;2.90;1.00;;;;;;5049870;28;20188;-55
2023/03/11 07:24:07;;;;;;;11.20;9.10;;;2.80;1.00;;;;;;5047279;28;21366;-55
2023/03/11 07:26:35;;;;;;;8.57;7.77;;;2.90;1.00;;;;;;5048320;28;20511;-54
2023/03/11 07:29:01;;;;;;;11.40;8.80;;;3.00;1.00;;;;;;5064266;28;20450;-55
2023/03/11 07:31:29;;;;;;;11.27;8.53;;;2.80;1.00;;;;;;5055535;28;20447;-54
2023/03/11 07:33:58;;;;;;;9.40;8.10;;;2.80;1.00;;;;;;5060019;28;20446;-55
2023/03/11 07:36:25;;;;;;;10.53;8.50;;;2.80;1.00;;;;;;5059201;28;21023;-56
2023/03/11 07:39:01;;;;;;;9.60;7.93;;;2.80;1.00;;;;;;5056473;28;20469;-52
2023/03/11 07:41:27;;;;;;;11.07;8.80;;;2.80;1.00;;;;;;5053880;28;20796;-54
2023/03/11 07:43:55;;;;;;;11.47;8.70;;;2.90;1.00;;;;;;5049620;28;20435;-56
2023/03/11 07:46:21;;;;;;;8.57;7.47;;;2.90;1.00;;;;;;5049269;28;20842;-54
2023/03/11 07:48:48;;;;;;;10.80;8.60;;;3.00;1.00;;;;;;5051645;28;20832;-54
2023/03/11 07:51:19;;;;;;;8.70;7.10;;;3.10;1.00;;;;;;5051035;28;20488;-54
2023/03/11 07:53:45;;;;;;;9.10;7.97;;;3.00;1.00;;;;;;5055996;28;20976;-53
2023/03/11 07:56:12;;;;;;;9.57;8.20;;;2.90;1.00;;;;;;5061345;28;20978;-54
2023/03/11 07:58:39;;;;;;;10.07;7.73;;;2.80;1.00;;;;;;5050396;28;20449;-53
2023/03/11 08:01:08;;;;;;;9.67;7.63;;;2.80;1.00;;;;;;5048692;28;20496;-56
2023/03/11 08:03:34;;;;;;;9.70;7.50;;;2.90;1.00;;;;;;5049312;28;20970;-53
2023/03/11 08:06:00;;;;;;;9.57;7.27;;;3.00;1.00;;;;;;5062183;28;20434;-55
2023/03/11 08:08:26;;;;;;;10.37;8.77;;;3.00;1.00;;;;;;5061067;28;20452;-57
2023/03/11 08:10:52;;;;;;;9.70;8.63;;;3.00;1.00;;;;;;5051519;28;20468;-58
2023/03/11 08:13:18;;;;;;;10.03;7.60;;;3.00;1.00;;;;;;5050676;28;20512;-56
2023/03/11 08:15:43;;;;;;;10.20;7.83;;;3.00;1.00;;;;;;5064096;28;20927;-55
2023/03/11 08:18:09;;;;;;;10.13;8.03;;;3.00;1.00;;;;;;5054041;28;20183;-54
2023/03/11 08:20:37;;;;;;;10.33;8.20;;;3.00;1.00;;;;;;5046169;28;20231;-54
2023/03/11 08:23:02;;;;;;;10.00;7.83;;;3.10;1.00;;;;;;5053835;28;20566;-52
2023/03/11 08:25:28;;;;;;;9.37;7.87;;;3.20;1.00;;;;;;5046563;28;20973;-57
2023/03/11 08:27:54;;;;;;;10.70;8.97;;;3.20;1.00;;;;;;5047947;28;21377;-55
2023/03/11 08:30:20;;;;;;;10.50;9.13;;;3.30;1.00;;;;;;5048152;28;20219;-55
2023/03/11 08:32:45;;;;;;;11.50;8.87;;;3.30;1.00;;;;;;5046555;28;20471;-55
2023/03/11 08:35:11;;;;;;;9.63;8.63;;;3.40;1.00;;;;;;5054300;28;20210;-54
2023/03/11 08:37:37;;;;;;;8.80;7.90;;;3.40;1.00;;;;;;5042958;28;20602;-55
2023/03/11 08:40:03;;;;;;;11.27;8.50;;;3.40;1.00;;;;;;5053537;28;20668;-56
2023/03/11 08:42:29;;;;;;;12.23;8.70;;;3.40;1.00;;;;;;5045318;28;20204;-56
2023/03/11 08:44:55;;;;;;;9.20;7.67;;;3.60;1.00;;;;;;5045658;28;20462;-55
2023/03/11 08:47:20;;;;;;;10.80;8.40;;;3.50;1.00;;;;;;5038766;28;20302;-54
2023/03/11 08:49:46;;;;;;;12.17;10.10;;;3.40;1.00;;;;;;5050613;28;20306;-56
2023/03/11 08:52:12;;;;;;;14.13;11.00;;;3.30;1.00;;;;;;5057456;28;20199;-56
2023/03/11 08:54:37;;;;;;;18.10;11.00;;;3.30;1.00;;;;;;5046489;28;20229;-56
2023/03/11 08:57:03;;;;;;;12.30;9.30;;;3.30;1.00;;;;;;5049552;28;20638;-57
2023/03/11 08:59:29;;;;;;;11.50;9.40;;;3.20;1.00;;;;;;5045175;28;20262;-53
2023/03/11 09:01:55;;;;;;;12.37;8.97;;;3.20;1.00;;;;;;5044483;28;20397;-57
2023/03/11 09:04:21;;;;;;;11.33;7.63;;;3.20;1.00;;;;;;5046723;28;20977;-55
2023/03/11 09:06:50;;;;;;;10.77;9.63;;;3.30;1.00;;;;;;5045565;28;20600;-57
2023/03/11 09:09:18;;;;;;;11.27;8.60;;;3.40;1.00;;;;;;5044766;28;20578;-55
2023/03/11 09:11:43;;;;;;;10.23;9.03;;;3.40;1.00;;;;;;5045415;28;20450;-54
2023/03/11 09:14:09;;;;;;;10.37;8.80;;;3.20;1.00;;;;;;5048580;28;20452;-53
2023/03/11 09:16:35;;;;;;;10.17;7.67;;;3.10;1.00;;;;;;5044478;28;20189;-55
2023/03/11 09:19:05;;;;;;;11.70;9.20;;;3.10;1.00;;;;;;5041288;28;20180;-54
2023/03/11 09:21:31;;;;;;;13.17;10.03;;;3.10;1.00;;;;;;5046613;28;20195;-54
2023/03/11 09:23:57;;;;;;;13.27;8.70;;;3.00;1.00;;;;;;5045261;28;20456;-54
2023/03/11 09:26:23;;;;;;;12.53;8.93;;;2.90;1.00;;;;;;5045247;28;20439;-56
2023/03/11 09:28:48;;;;;;;12.10;9.17;;;2.90;1.00;;;;;;5043059;28;20232;-53
2023/03/11 09:31:15;;;;;;;13.87;9.07;;;3.00;1.00;;;;;;5044580;28;20947;-55
2023/03/11 09:33:41;;;;;;;14.03;8.67;;;3.00;1.00;;;;;;5049836;28;20190;-55
2023/03/11 09:36:11;;;;;;;12.27;8.83;;;3.00;1.00;;;;;;5045764;28;20469;-54
2023/03/11 09:38:36;;;;;;;20.63;11.07;;;2.90;1.00;;;;;;5046735;28;20450;-57
2023/03/11 09:41:21;;;;;;;12.83;10.60;;;2.90;1.00;;;;;;5047358;28;20501;-54
2023/03/11 09:44:11;;;;;;;15.70;9.67;;;2.80;1.00;;;;;;5046472;28;20195;-54
2023/03/11 09:47:10;;;;;;;15.27;9.80;;;2.80;1.00;;;;;;5045794;28;20477;-55
2023/03/11 09:49:39;;;;;;;9.83;7.80;;;3.00;1.00;;;;;;5049390;28;20990;-55
2023/03/11 09:52:14;;;;;;;14.07;10.77;;;3.00;1.00;;;;;;5043768;28;20497;-55
2023/03/11 09:55:00;;;;;;;11.97;9.83;;;3.00;1.00;;;;;;5045115;28;20469;-54
2023/03/11 09:57:31;;;;;;;11.73;9.47;;;3.10;1.00;;;;;;5048324;28;20475;-54
2023/03/11 09:59:57;;;;;;;11.87;9.60;;;3.10;1.00;;;;;;5047553;28;20731;-57
2023/03/11 10:02:27;;;;;;;8.47;7.10;;;3.10;1.00;;;;;;5045128;28;20875;-56
2023/03/11 10:04:57;;;;;;;11.10;8.70;;;3.10;1.00;;;;;;5050369;28;20495;-54
2023/03/11 10:07:30;;;;;;;10.40;8.00;;;3.10;1.00;;;;;;5046714;28;20439;-56
2023/03/11 10:09:57;;;;;;;11.10;9.17;;;3.20;1.00;;;;;;5047716;28;20555;-53
2023/03/11 10:12:45;;;;;;;9.93;8.93;;;3.20;1.00;;;;;;5044967;28;20446;-55
2023/03/11 10:15:47;;;;;;;10.03;7.87;;;3.10;1.00;;;;;;5051512;28;20445;-54
2023/03/11 10:18:30;;;;;;;10.90;8.20;;;3.20;1.00;;;;;;5044191;28;20453;-54
2023/03/11 10:21:06;;;;;;;10.20;8.43;;;3.30;1.00;;;;;;5046521;28;20436;-54
2023/03/11 10:24:09;;;;;;;10.47;8.23;;;3.40;1.00;;;;;;5044013;28;20485;-55
2023/03/11 10:26:50;;;;;;;10.77;7.97;;;3.70;1.00;;;;;;5042025;28;20552;-55
2023/03/11 10:29:29;;;;;;;10.67;7.53;;;3.90;1.00;;;;;;5045961;28;20467;-56
2023/03/11 10:32:25;;;;;;;10.20;7.70;;;4.00;1.00;;;;;;5047422;28;20524;-55
2023/03/11 10:35:15;;;;;;;8.40;7.50;;;3.90;1.00;;;;;;5043606;28;20457;-57
2023/03/11 10:37:53;;;;;;;7.30;6.47;;;3.90;1.00;;;;;;5050631;28;20427;-56
2023/03/11 10:40:26;;;;;;;9.17;8.00;;;4.10;1.00;;;;;;5043497;28;20438;-57
2023/03/11 10:42:56;;;;;;;10.07;9.07;;;4.40;1.00;;;;;;5044412;28;20537;-55
2023/03/11 10:45:22;;;;;;;8.87;7.97;;;4.40;1.00;;;;;;5045568;28;20505;-55
2023/03/11 10:47:48;;;;;;;8.37;6.90;;;4.50;1.00;;;;;;5042409;28;20945;-56
2023/03/11 10:50:16;;;;;;;8.87;6.87;;;4.30;1.00;;;;;;5045197;28;20962;-54
2023/03/11 10:53:06;;;;;;;8.73;7.50;;;4.10;1.00;;;;;;5052000;28;20892;-53
2023/03/11 10:55:31;;;;;;;8.20;7.40;;;4.10;1.00;;;;;;5046164;28;20452;-54
2023/03/11 10:58:06;;;;;;;9.50;8.07;;;4.00;1.00;;;;;;5053012;28;20450;-56
2023/03/11 11:00:31;;;;;;;11.33;8.07;;;4.10;1.00;;;;;;5053397;28;20237;-56
2023/03/11 11:02:58;;;;;;;7.70;6.90;;;4.20;1.00;;;;;;5048566;28;20442;-54
2023/03/11 11:05:31;;;;;;;8.70;6.27;;;4.40;1.00;;;;;;5048578;28;20453;-55
2023/03/11 11:08:08;;;;;;;10.57;8.93;;;4.30;1.00;;;;;;5051135;28;20497;-56
2023/03/11 11:10:36;;;;;;;10.03;6.93;;;4.00;1.00;;;;;;5052717;28;20557;-55
2023/03/11 11:13:26;;;;;;;8.20;7.07;;;3.90;1.00;;;;;;5054315;28;20499;-54
2023/03/11 11:16:04;;;;;;;8.20;6.87;;;3.70;1.00;;;;;;5050649;28;20896;-56
2023/03/11 11:19:03;;;;;;;9.43;7.00;;;3.70;1.00;;;;;;5054642;28;20553;-53
2023/03/11 11:21:38;;;;;;;8.70;7.30;;;3.70;1.00;;;;;;5045177;28;20459;-54
2023/03/11 11:24:28;;;;;;;8.07;7.27;;;3.80;1.00;;;;;;5048976;28;20503;-56
2023/03/11 11:27:04;;;;;;;7.93;7.13;;;3.70;1.00;;;;;;5053318;28;20449;-55
2023/03/11 11:29:29;;;;;;;9.37;7.13;;;3.60;1.00;;;;;;5055611;28;20500;-54
2023/03/11 11:32:17;;;;;;;13.90;7.70;;;3.70;1.00;;;;;;5050255;28;20509;-54
2023/03/11 11:35:02;;;;;;;9.00;8.10;;;4.10;1.00;;;;;;5046185;28;20236;-54
2023/03/11 11:37:31;;;;;;;6.67;6.07;;;4.40;1.00;;;;;;5044307;28;20515;-54
2023/03/11 11:40:08;;;;;;;6.90;6.20;;;4.40;1.00;;;;;;5044747;28;20426;-57
2023/03/11 11:42:35;;;;;;;6.60;5.90;;;4.00;1.00;;;;;;5046787;28;20476;-55
2023/03/11 11:45:25;;;;;;;9.00;7.60;;;3.80;1.00;;;;;;5047148;28;20454;-54
2023/03/11 11:47:57;;;;;;;7.27;6.57;;;3.70;1.00;;;;;;5058411;28;20453;-54
2023/03/11 11:50:35;;;;;;;7.57;6.50;;;3.90;1.00;;;;;;5053166;28;20496;-53
2023/03/11 11:53:31;;;;;;;6.30;5.63;;;4.30;1.00;;;;;;5050992;28;20808;-54
2023/03/11 11:55:57;;;;;;;5.83;5.23;;;4.60;1.00;;;;;;5049340;28;20986;-55
2023/03/11 11:58:23;;;;;;;6.07;5.53;;;4.80;1.00;;;;;;5063743;28;20518;-54
2023/03/11 12:01:12;;;;;;;7.97;7.07;;;4.80;1.00;;;;;;5055431;28;20454;-55
2023/03/11 12:04:00;;;;;;;8.13;6.10;;;4.80;1.00;;;;;;5044529;28;20304;-55
2023/03/11 12:06:37;;;;;;;6.30;5.60;;;4.90;1.00;;;;;;5046807;28;20454;-56
2023/03/11 12:09:22;;;;;;;7.30;6.30;;;4.70;1.00;;;;;;5059440;28;20822;-52
2023/03/11 12:11:53;;;;;;;5.17;4.67;;;4.30;1.00;;;;;;5047905;28;20450;-55
2023/03/11 12:14:35;;;;;;;7.13;5.43;;;4.20;1.00;;;;;;5050910;28;20847;-55
2023/03/11 12:17:03;;;;;;;7.27;6.07;;;4.10;1.00;;;;;;5050237;28;21024;-54
2023/03/11 12:19:50;;;;;;;6.40;5.37;;;4.20;1.00;;;;;;5049626;28;21187;-55
2023/03/11 12:22:31;;;;;;;8.30;6.20;;;4.30;1.00;;;;;;5050011;28;20951;-55
2023/03/11 12:25:07;;;;;;;8.20;5.30;;;4.20;1.00;;;;;;5057533;28;20792;-55
2023/03/11 12:27:40;;;;;;;6.93;5.03;;;4.20;1.00;;;;;;5061139;28;20608;-54
2023/03/11 12:30:16;;;;;;;8.93;7.30;;;4.30;1.00;;;;;;5057155;28;20475;-54
2023/03/11 12:32:52;;;;;;;7.10;5.83;;;4.10;1.00;;;;;;5060172;28;20529;-56
2023/03/11 12:35:23;;;;;;;5.87;5.27;;;4.10;1.00;;;;;;5049638;28;20449;-56
2023/03/11 12:38:12;;;;;;;6.40;4.93;;;4.20;1.00;;;;;;5052199;28;20450;-54
2023/03/11 12:40:58;;;;;;;6.50;5.83;;;4.30;1.00;;;;;;5023796;28;20810;-57
2023/03/11 12:43:35;;;;;;;7.80;5.40;;;4.30;1.00;;;;;;5059445;28;20461;-56
2023/03/11 12:46:08;;;;;;;6.33;5.63;;;4.20;1.00;;;;;;5047383;28;20460;-54
2023/03/11 12:48:46;;;;;;;5.90;5.30;;;4.20;1.00;;;;;;5048386;28;20877;-56
2023/03/11 12:51:59;;;;;;;9.20;6.40;;;4.20;1.00;;;;;;5050551;28;20467;-55
2023/03/11 12:54:30;;;;;;;7.43;5.23;;;4.40;1.00;;;;;;5045007;28;20532;-55
2023/03/11 12:56:57;;;;;;;6.60;5.53;;;4.50;1.00;;;;;;5057840;28;20870;-55
2023/03/11 12:59:41;;;;;;;8.17;5.77;;;4.40;1.00;;;;;;5035863;28;20465;-55
2023/03/11 13:02:22;;;;;;;9.10;6.23;;;4.30;1.00;;;;;;5048859;28;20499;-54
2023/03/11 13:04:58;;;;;;;8.40;6.37;;;4.50;1.00;;;;;;5064532;28;20434;-56
2023/03/11 13:07:54;;;;;;;8.63;7.07;;;4.50;1.00;;;;;;5052709;28;20514;-55
2023/03/11 13:10:28;;;;;;;9.30;7.10;;;4.30;1.00;;;;;;5052149;28;20640;-55
2023/03/11 13:12:55;;;;;;;8.63;6.73;;;4.00;1.00;;;;;;5047421;28;20480;-54
2023/03/11 13:15:20;;;;;;;8.43;7.13;;;4.10;1.00;;;;;;5048201;28;20511;-57